sensor_id;sensor_type;location;lat;lon;timestamp;P1;durP1;ratioP1;P2;durP2;ratioP2
13483;SDS011;6814;57.786;12.080;2023-06-04T00:00:38;7.33;;;2.60;;
13483;SDS011;6814;57.786;12.080;2023-06-04T00:03:04;3.63;;;2.70;;
13483;SDS011;6814;57.786;12.080;2023-06-04T00:05:32;6.53;;;2.50;;
13483;SDS011;6814;57.786;12.080;2023-06-04T00:07:58;5.63;;;2.47;;
13483;SDS011;6814;57.786;12.080;2023-06-04T00:10:25;7.80;;;2.50;;
13483;SDS011;6814;57.786;12.080;2023-06-04T00:12:51;5.97;;;2.83;;
13483;SDS011;6814;57.786;12.080;2023-06-04T00:15:18;5.70;;;2.90;;
13483;SDS011;6814;57.786;12.080;2023-06-04T00:17:44;6.53;;;2.60;;
13483;SDS011;6814;57.786;12.080;2023-06-04T00:20:11;7.17;;;2.60;;
13483;SDS011;6814;57.786;12.080;2023-06-04T00:22:39;5.53;;;3.10;;
13483;SDS011;6814;57.786;12.080;2023-06-04T00:25:07;9.37;;;3.10;;
13483;SDS011;6814;57.786;12.080;2023-06-04T00:27:33;5.60;;;2.90;;
13483;SDS011;6814;57.786;12.080;2023-06-04T00:30:00;5.93;;;2.80;;
13483;SDS011;6814;57.786;12.080;2023-06-04T00:32:26;3.70;;;2.70;;
13483;SDS011;6814;57.786;12.080;2023-06-04T00:34:53;5.33;;;2.83;;
13483;SDS011;6814;57.786;12.080;2023-06-04T00:37:21;10.03;;;2.87;;
13483;SDS011;6814;57.786;12.080;2023-06-04T00:39:49;7.50;;;2.87;;
13483;SDS011;6814;57.786;12.080;2023-06-04T00:42:16;7.47;;;3.30;;
13483;SDS011;6814;57.786;12.080;2023-06-04T00:44:42;4.27;;;2.53;;
13483;SDS011;6814;57.786;12.080;2023-06-04T00:47:09;8.47;;;2.70;;
13483;SDS011;6814;57.786;12.080;2023-06-04T00:49:36;5.30;;;2.87;;
13483;SDS011;6814;57.786;12.080;2023-06-04T00:52:02;5.40;;;2.63;;
13483;SDS011;6814;57.786;12.080;2023-06-04T00:54:29;9.07;;;2.60;;
13483;SDS011;6814;57.786;12.080;2023-06-04T00:56:59;7.87;;;2.63;;
13483;SDS011;6814;57.786;12.080;2023-06-04T00:59:25;4.17;;;2.60;;
13483;SDS011;6814;57.786;12.080;2023-06-04T01:01:54;6.57;;;2.70;;
13483;SDS011;6814;57.786;12.080;2023-06-04T01:04:24;5.90;;;2.90;;
13483;SDS011;6814;57.786;12.080;2023-06-04T01:06:51;8.67;;;2.70;;
13483;SDS011;6814;57.786;12.080;2023-06-04T01:09:19;7.00;;;2.93;;
13483;SDS011;6814;57.786;12.080;2023-06-04T01:11:46;5.37;;;2.73;;
13483;SDS011;6814;57.786;12.080;2023-06-04T01:14:14;6.57;;;2.60;;
13483;SDS011;6814;57.786;12.080;2023-06-04T01:16:44;7.27;;;3.07;;
13483;SDS011;6814;57.786;12.080;2023-06-04T01:19:17;7.40;;;3.00;;
13483;SDS011;6814;57.786;12.080;2023-06-04T01:21:46;8.30;;;2.57;;
13483;SDS011;6814;57.786;12.080;2023-06-04T01:24:14;6.03;;;2.97;;
13483;SDS011;6814;57.786;12.080;2023-06-04T01:26:41;4.63;;;2.37;;
13483;SDS011;6814;57.786;12.080;2023-06-04T01:29:08;7.73;;;2.63;;
13483;SDS011;6814;57.786;12.080;2023-06-04T01:31:36;7.00;;;2.80;;
13483;SDS011;6814;57.786;12.080;2023-06-04T01:34:02;6.00;;;2.83;;
13483;SDS011;6814;57.786;12.080;2023-06-04T01:36:29;5.90;;;2.77;;
13483;SDS011;6814;57.786;12.080;2023-06-04T01:38:55;7.13;;;2.83;;
13483;SDS011;6814;57.786;12.080;2023-06-04T01:41:22;5.90;;;2.80;;
13483;SDS011;6814;57.786;12.080;2023-06-04T01:43:48;5.00;;;2.87;;
13483;SDS011;6814;57.786;12.080;2023-06-04T01:46:15;7.27;;;3.50;;
13483;SDS011;6814;57.786;12.080;2023-06-04T01:48:42;4.43;;;2.60;;
13483;SDS011;6814;57.786;12.080;2023-06-04T01:51:09;6.93;;;3.27;;
13483;SDS011;6814;57.786;12.080;2023-06-04T01:53:35;5.33;;;3.30;;
13483;SDS011;6814;57.786;12.080;2023-06-04T01:56:02;6.30;;;2.80;;
13483;SDS011;6814;57.786;12.080;2023-06-04T01:58:28;3.80;;;3.37;;
13483;SDS011;6814;57.786;12.080;2023-06-04T02:00:57;4.13;;;3.10;;
13483;SDS011;6814;57.786;12.080;2023-06-04T02:03:25;6.07;;;3.10;;
13483;SDS011;6814;57.786;12.080;2023-06-04T02:05:53;5.93;;;3.07;;
13483;SDS011;6814;57.786;12.080;2023-06-04T02:08:19;3.53;;;3.20;;
13483;SDS011;6814;57.786;12.080;2023-06-04T02:10:45;5.73;;;3.73;;
13483;SDS011;6814;57.786;12.080;2023-06-04T02:13:13;7.13;;;3.20;;
13483;SDS011;6814;57.786;12.080;2023-06-04T02:15:40;3.93;;;3.00;;
13483;SDS011;6814;57.786;12.080;2023-06-04T02:18:13;6.03;;;3.17;;
13483;SDS011;6814;57.786;12.080;2023-06-04T02:20:41;6.07;;;3.50;;
13483;SDS011;6814;57.786;12.080;2023-06-04T02:23:08;3.90;;;3.30;;
13483;SDS011;6814;57.786;12.080;2023-06-04T02:25:35;7.50;;;3.43;;
13483;SDS011;6814;57.786;12.080;2023-06-04T02:28:01;5.50;;;3.53;;
13483;SDS011;6814;57.786;12.080;2023-06-04T02:30:28;9.17;;;3.40;;
13483;SDS011;6814;57.786;12.080;2023-06-04T02:32:54;6.67;;;3.40;;
13483;SDS011;6814;57.786;12.080;2023-06-04T02:35:21;7.43;;;3.20;;
13483;SDS011;6814;57.786;12.080;2023-06-04T02:37:48;3.40;;;3.10;;
13483;SDS011;6814;57.786;12.080;2023-06-04T02:40:17;6.40;;;3.43;;
13483;SDS011;6814;57.786;12.080;2023-06-04T02:42:44;8.33;;;3.70;;
13483;SDS011;6814;57.786;12.080;2023-06-04T02:45:10;9.30;;;3.57;;
13483;SDS011;6814;57.786;12.080;2023-06-04T02:47:37;6.13;;;3.73;;
13483;SDS011;6814;57.786;12.080;2023-06-04T02:50:04;8.50;;;3.77;;
13483;SDS011;6814;57.786;12.080;2023-06-04T02:52:30;4.57;;;3.37;;
13483;SDS011;6814;57.786;12.080;2023-06-04T02:54:58;9.03;;;3.77;;
13483;SDS011;6814;57.786;12.080;2023-06-04T02:57:25;6.33;;;3.50;;
13483;SDS011;6814;57.786;12.080;2023-06-04T02:59:52;5.10;;;3.10;;
13483;SDS011;6814;57.786;12.080;2023-06-04T03:02:20;4.60;;;3.10;;
13483;SDS011;6814;57.786;12.080;2023-06-04T03:04:46;6.10;;;3.57;;
13483;SDS011;6814;57.786;12.080;2023-06-04T03:07:16;8.63;;;3.80;;
13483;SDS011;6814;57.786;12.080;2023-06-04T03:09:45;5.50;;;3.57;;
13483;SDS011;6814;57.786;12.080;2023-06-04T03:12:12;5.27;;;3.50;;
13483;SDS011;6814;57.786;12.080;2023-06-04T03:14:40;8.50;;;4.03;;
13483;SDS011;6814;57.786;12.080;2023-06-04T03:17:06;7.53;;;3.53;;
13483;SDS011;6814;57.786;12.080;2023-06-04T03:19:35;6.23;;;3.80;;
13483;SDS011;6814;57.786;12.080;2023-06-04T03:22:02;9.23;;;3.77;;
13483;SDS011;6814;57.786;12.080;2023-06-04T03:24:31;6.43;;;3.37;;
13483;SDS011;6814;57.786;12.080;2023-06-04T03:26:58;5.80;;;3.37;;
13483;SDS011;6814;57.786;12.080;2023-06-04T03:29:25;7.57;;;3.33;;
13483;SDS011;6814;57.786;12.080;2023-06-04T03:31:52;6.47;;;3.73;;
13483;SDS011;6814;57.786;12.080;2023-06-04T03:34:19;6.17;;;3.87;;
13483;SDS011;6814;57.786;12.080;2023-06-04T03:36:45;7.97;;;3.87;;
13483;SDS011;6814;57.786;12.080;2023-06-04T03:39:12;7.57;;;3.80;;
13483;SDS011;6814;57.786;12.080;2023-06-04T03:41:38;9.03;;;4.03;;
13483;SDS011;6814;57.786;12.080;2023-06-04T03:44:05;5.37;;;3.63;;
13483;SDS011;6814;57.786;12.080;2023-06-04T03:46:31;6.43;;;3.73;;
13483;SDS011;6814;57.786;12.080;2023-06-04T03:49:00;7.00;;;4.20;;
13483;SDS011;6814;57.786;12.080;2023-06-04T03:51:26;8.37;;;3.70;;
13483;SDS011;6814;57.786;12.080;2023-06-04T03:53:52;9.90;;;4.07;;
13483;SDS011;6814;57.786;12.080;2023-06-04T03:56:19;9.47;;;3.67;;
13483;SDS011;6814;57.786;12.080;2023-06-04T03:58:46;8.03;;;3.87;;
13483;SDS011;6814;57.786;12.080;2023-06-04T04:01:13;3.93;;;3.00;;
13483;SDS011;6814;57.786;12.080;2023-06-04T04:03:39;4.43;;;3.23;;
13483;SDS011;6814;57.786;12.080;2023-06-04T04:06:07;5.43;;;3.20;;
13483;SDS011;6814;57.786;12.080;2023-06-04T04:08:33;8.03;;;3.50;;
13483;SDS011;6814;57.786;12.080;2023-06-04T04:11:00;8.13;;;3.27;;
13483;SDS011;6814;57.786;12.080;2023-06-04T04:13:26;5.43;;;3.30;;
13483;SDS011;6814;57.786;12.080;2023-06-04T04:15:53;8.53;;;3.00;;
13483;SDS011;6814;57.786;12.080;2023-06-04T04:18:19;6.33;;;2.70;;
13483;SDS011;6814;57.786;12.080;2023-06-04T04:20:46;6.53;;;3.60;;
13483;SDS011;6814;57.786;12.080;2023-06-04T04:23:14;5.40;;;2.73;;
13483;SDS011;6814;57.786;12.080;2023-06-04T04:25:42;5.83;;;2.70;;
13483;SDS011;6814;57.786;12.080;2023-06-04T04:28:09;4.37;;;2.53;;
13483;SDS011;6814;57.786;12.080;2023-06-04T04:30:35;7.17;;;2.83;;
13483;SDS011;6814;57.786;12.080;2023-06-04T04:33:02;5.50;;;2.80;;
13483;SDS011;6814;57.786;12.080;2023-06-04T04:35:30;9.47;;;3.23;;
13483;SDS011;6814;57.786;12.080;2023-06-04T04:37:57;7.03;;;2.60;;
13483;SDS011;6814;57.786;12.080;2023-06-04T04:40:25;4.53;;;2.47;;
13483;SDS011;6814;57.786;12.080;2023-06-04T04:42:52;7.37;;;3.10;;
13483;SDS011;6814;57.786;12.080;2023-06-04T04:45:18;4.37;;;2.60;;
13483;SDS011;6814;57.786;12.080;2023-06-04T04:47:45;3.77;;;2.40;;
13483;SDS011;6814;57.786;12.080;2023-06-04T04:50:12;6.80;;;2.20;;
13483;SDS011;6814;57.786;12.080;2023-06-04T04:52:38;5.27;;;2.43;;
13483;SDS011;6814;57.786;12.080;2023-06-04T04:55:05;3.23;;;2.00;;
13483;SDS011;6814;57.786;12.080;2023-06-04T04:57:33;4.57;;;2.40;;
13483;SDS011;6814;57.786;12.080;2023-06-04T04:59:59;3.27;;;2.50;;
13483;SDS011;6814;57.786;12.080;2023-06-04T05:02:27;3.73;;;2.30;;
13483;SDS011;6814;57.786;12.080;2023-06-04T05:04:53;5.30;;;2.47;;
13483;SDS011;6814;57.786;12.080;2023-06-04T05:07:20;7.33;;;2.83;;
13483;SDS011;6814;57.786;12.080;2023-06-04T05:09:48;5.30;;;2.53;;
13483;SDS011;6814;57.786;12.080;2023-06-04T05:12:14;6.97;;;2.47;;
13483;SDS011;6814;57.786;12.080;2023-06-04T05:14:42;9.60;;;3.37;;
13483;SDS011;6814;57.786;12.080;2023-06-04T05:17:09;8.90;;;2.53;;
13483;SDS011;6814;57.786;12.080;2023-06-04T05:19:36;7.87;;;3.03;;
13483;SDS011;6814;57.786;12.080;2023-06-04T05:22:03;9.13;;;2.40;;
13483;SDS011;6814;57.786;12.080;2023-06-04T05:24:30;6.03;;;3.00;;
13483;SDS011;6814;57.786;12.080;2023-06-04T05:26:57;13.07;;;3.20;;
13483;SDS011;6814;57.786;12.080;2023-06-04T05:29:24;8.27;;;2.60;;
13483;SDS011;6814;57.786;12.080;2023-06-04T05:31:52;5.43;;;2.73;;
13483;SDS011;6814;57.786;12.080;2023-06-04T05:34:18;8.17;;;2.97;;
13483;SDS011;6814;57.786;12.080;2023-06-04T05:36:46;12.33;;;3.13;;
13483;SDS011;6814;57.786;12.080;2023-06-04T05:39:12;13.37;;;3.17;;
13483;SDS011;6814;57.786;12.080;2023-06-04T05:41:39;8.90;;;3.20;;
13483;SDS011;6814;57.786;12.080;2023-06-04T05:44:05;8.43;;;2.80;;
13483;SDS011;6814;57.786;12.080;2023-06-04T05:46:32;6.63;;;3.30;;
13483;SDS011;6814;57.786;12.080;2023-06-04T05:49:00;6.73;;;3.40;;
13483;SDS011;6814;57.786;12.080;2023-06-04T05:51:26;8.27;;;3.37;;
13483;SDS011;6814;57.786;12.080;2023-06-04T05:53:52;8.43;;;3.17;;
13483;SDS011;6814;57.786;12.080;2023-06-04T05:56:19;7.23;;;3.63;;
13483;SDS011;6814;57.786;12.080;2023-06-04T05:58:50;8.23;;;3.70;;
13483;SDS011;6814;57.786;12.080;2023-06-04T06:01:17;9.00;;;3.87;;
13483;SDS011;6814;57.786;12.080;2023-06-04T06:03:43;7.43;;;3.60;;
13483;SDS011;6814;57.786;12.080;2023-06-04T06:06:11;8.63;;;3.43;;
13483;SDS011;6814;57.786;12.080;2023-06-04T06:08:37;9.40;;;3.93;;
13483;SDS011;6814;57.786;12.080;2023-06-04T06:11:04;11.37;;;4.70;;
13483;SDS011;6814;57.786;12.080;2023-06-04T06:13:32;12.20;;;4.67;;
13483;SDS011;6814;57.786;12.080;2023-06-04T06:15:58;8.63;;;4.50;;
13483;SDS011;6814;57.786;12.080;2023-06-04T06:18:25;8.93;;;4.20;;
13483;SDS011;6814;57.786;12.080;2023-06-04T06:20:51;10.53;;;4.60;;
13483;SDS011;6814;57.786;12.080;2023-06-04T06:23:19;12.63;;;5.57;;
13483;SDS011;6814;57.786;12.080;2023-06-04T06:25:47;9.97;;;4.53;;
13483;SDS011;6814;57.786;12.080;2023-06-04T06:28:16;11.27;;;4.87;;
13483;SDS011;6814;57.786;12.080;2023-06-04T06:30:43;11.27;;;4.93;;
13483;SDS011;6814;57.786;12.080;2023-06-04T06:33:10;12.50;;;5.43;;
13483;SDS011;6814;57.786;12.080;2023-06-04T06:35:36;9.40;;;4.40;;
13483;SDS011;6814;57.786;12.080;2023-06-04T06:38:03;9.47;;;4.40;;
13483;SDS011;6814;57.786;12.080;2023-06-04T06:40:31;11.87;;;5.00;;
13483;SDS011;6814;57.786;12.080;2023-06-04T06:42:57;7.40;;;3.80;;
13483;SDS011;6814;57.786;12.080;2023-06-04T06:45:24;10.70;;;4.13;;
13483;SDS011;6814;57.786;12.080;2023-06-04T06:47:50;6.70;;;3.73;;
13483;SDS011;6814;57.786;12.080;2023-06-04T06:50:16;8.67;;;3.70;;
13483;SDS011;6814;57.786;12.080;2023-06-04T06:52:43;7.93;;;4.10;;
13483;SDS011;6814;57.786;12.080;2023-06-04T06:55:09;7.57;;;3.80;;
13483;SDS011;6814;57.786;12.080;2023-06-04T06:57:37;5.87;;;3.83;;
13483;SDS011;6814;57.786;12.080;2023-06-04T07:00:04;6.50;;;4.23;;
13483;SDS011;6814;57.786;12.080;2023-06-04T07:02:31;8.80;;;4.70;;
13483;SDS011;6814;57.786;12.080;2023-06-04T07:04:57;8.43;;;4.37;;
13483;SDS011;6814;57.786;12.080;2023-06-04T07:07:24;6.40;;;3.50;;
13483;SDS011;6814;57.786;12.080;2023-06-04T07:09:51;9.37;;;4.60;;
13483;SDS011;6814;57.786;12.080;2023-06-04T07:12:18;8.43;;;4.20;;
13483;SDS011;6814;57.786;12.080;2023-06-04T07:14:46;8.43;;;3.77;;
13483;SDS011;6814;57.786;12.080;2023-06-04T07:17:12;4.93;;;3.23;;
13483;SDS011;6814;57.786;12.080;2023-06-04T07:19:39;5.97;;;3.10;;
13483;SDS011;6814;57.786;12.080;2023-06-04T07:22:05;6.07;;;3.27;;
13483;SDS011;6814;57.786;12.080;2023-06-04T07:24:32;6.73;;;3.60;;
13483;SDS011;6814;57.786;12.080;2023-06-04T07:26:58;4.90;;;3.30;;
13483;SDS011;6814;57.786;12.080;2023-06-04T07:29:25;4.23;;;2.70;;
13483;SDS011;6814;57.786;12.080;2023-06-04T07:31:53;6.47;;;3.10;;
13483;SDS011;6814;57.786;12.080;2023-06-04T07:34:19;7.07;;;3.00;;
13483;SDS011;6814;57.786;12.080;2023-06-04T07:36:46;5.43;;;2.70;;
13483;SDS011;6814;57.786;12.080;2023-06-04T07:39:13;5.00;;;2.57;;
13483;SDS011;6814;57.786;12.080;2023-06-04T07:41:39;5.73;;;2.83;;
13483;SDS011;6814;57.786;12.080;2023-06-04T07:44:06;6.50;;;2.60;;
13483;SDS011;6814;57.786;12.080;2023-06-04T07:46:32;5.10;;;3.13;;
13483;SDS011;6814;57.786;12.080;2023-06-04T07:49:00;4.00;;;2.60;;
13483;SDS011;6814;57.786;12.080;2023-06-04T07:51:26;4.43;;;2.97;;
13483;SDS011;6814;57.786;12.080;2023-06-04T07:53:53;4.33;;;2.40;;
13483;SDS011;6814;57.786;12.080;2023-06-04T07:56:19;4.50;;;2.43;;
13483;SDS011;6814;57.786;12.080;2023-06-04T07:58:45;4.67;;;2.57;;
13483;SDS011;6814;57.786;12.080;2023-06-04T08:01:12;4.17;;;2.50;;
13483;SDS011;6814;57.786;12.080;2023-06-04T08:03:38;6.37;;;2.50;;
13483;SDS011;6814;57.786;12.080;2023-06-04T08:06:08;4.67;;;2.30;;
13483;SDS011;6814;57.786;12.080;2023-06-04T08:08:35;5.33;;;2.23;;
13483;SDS011;6814;57.786;12.080;2023-06-04T08:11:01;3.67;;;2.07;;
13483;SDS011;6814;57.786;12.080;2023-06-04T08:13:27;5.30;;;2.33;;
13483;SDS011;6814;57.786;12.080;2023-06-04T08:15:54;5.27;;;2.07;;
13483;SDS011;6814;57.786;12.080;2023-06-04T08:18:20;5.00;;;2.40;;
13483;SDS011;6814;57.786;12.080;2023-06-04T08:20:47;4.63;;;2.20;;
13483;SDS011;6814;57.786;12.080;2023-06-04T08:23:15;4.90;;;2.30;;
13483;SDS011;6814;57.786;12.080;2023-06-04T08:25:41;3.93;;;2.13;;
13483;SDS011;6814;57.786;12.080;2023-06-04T08:28:08;5.07;;;2.33;;
13483;SDS011;6814;57.786;12.080;2023-06-04T08:30:34;3.10;;;2.17;;
13483;SDS011;6814;57.786;12.080;2023-06-04T08:33:02;3.80;;;2.17;;
13483;SDS011;6814;57.786;12.080;2023-06-04T08:35:28;3.13;;;2.13;;
13483;SDS011;6814;57.786;12.080;2023-06-04T08:37:54;4.37;;;2.10;;
13483;SDS011;6814;57.786;12.080;2023-06-04T08:40:22;5.40;;;2.17;;
13483;SDS011;6814;57.786;12.080;2023-06-04T08:42:49;3.23;;;2.10;;
13483;SDS011;6814;57.786;12.080;2023-06-04T08:45:17;4.07;;;2.50;;
13483;SDS011;6814;57.786;12.080;2023-06-04T08:47:47;3.83;;;2.07;;
13483;SDS011;6814;57.786;12.080;2023-06-04T08:50:14;6.50;;;2.03;;
13483;SDS011;6814;57.786;12.080;2023-06-04T08:52:42;5.30;;;2.20;;
13483;SDS011;6814;57.786;12.080;2023-06-04T08:55:09;3.53;;;2.10;;
13483;SDS011;6814;57.786;12.080;2023-06-04T08:57:38;4.00;;;1.90;;
13483;SDS011;6814;57.786;12.080;2023-06-04T09:00:05;3.93;;;2.13;;
13483;SDS011;6814;57.786;12.080;2023-06-04T09:02:33;4.50;;;2.03;;
13483;SDS011;6814;57.786;12.080;2023-06-04T09:04:59;4.43;;;2.47;;
13483;SDS011;6814;57.786;12.080;2023-06-04T09:07:28;3.23;;;2.40;;
13483;SDS011;6814;57.786;12.080;2023-06-04T09:09:56;3.67;;;2.27;;
13483;SDS011;6814;57.786;12.080;2023-06-04T09:12:23;3.63;;;2.00;;
13483;SDS011;6814;57.786;12.080;2023-06-04T09:14:51;2.70;;;1.70;;
13483;SDS011;6814;57.786;12.080;2023-06-04T09:17:21;4.93;;;2.03;;
13483;SDS011;6814;57.786;12.080;2023-06-04T09:19:47;4.03;;;2.07;;
13483;SDS011;6814;57.786;12.080;2023-06-04T09:22:13;2.90;;;1.77;;
13483;SDS011;6814;57.786;12.080;2023-06-04T09:24:40;2.93;;;1.70;;
13483;SDS011;6814;57.786;12.080;2023-06-04T09:27:11;2.17;;;1.40;;
13483;SDS011;6814;57.786;12.080;2023-06-04T09:29:38;4.70;;;1.97;;
13483;SDS011;6814;57.786;12.080;2023-06-04T09:32:06;2.70;;;1.70;;
13483;SDS011;6814;57.786;12.080;2023-06-04T09:34:33;3.30;;;1.93;;
13483;SDS011;6814;57.786;12.080;2023-06-04T09:36:59;3.90;;;1.87;;
13483;SDS011;6814;57.786;12.080;2023-06-04T09:39:26;2.03;;;1.47;;
13483;SDS011;6814;57.786;12.080;2023-06-04T09:41:58;3.33;;;1.70;;
13483;SDS011;6814;57.786;12.080;2023-06-04T09:44:25;4.23;;;1.60;;
13483;SDS011;6814;57.786;12.080;2023-06-04T09:46:55;2.70;;;1.87;;
13483;SDS011;6814;57.786;12.080;2023-06-04T09:49:23;2.80;;;1.77;;
13483;SDS011;6814;57.786;12.080;2023-06-04T09:51:50;3.43;;;1.60;;
13483;SDS011;6814;57.786;12.080;2023-06-04T09:54:16;3.47;;;1.70;;
13483;SDS011;6814;57.786;12.080;2023-06-04T09:56:43;2.43;;;1.57;;
13483;SDS011;6814;57.786;12.080;2023-06-04T09:59:09;4.53;;;1.87;;
13483;SDS011;6814;57.786;12.080;2023-06-04T10:01:38;1.60;;;1.50;;
13483;SDS011;6814;57.786;12.080;2023-06-04T10:04:07;2.07;;;1.50;;
13483;SDS011;6814;57.786;12.080;2023-06-04T10:06:35;2.93;;;1.60;;
13483;SDS011;6814;57.786;12.080;2023-06-04T10:09:04;3.20;;;1.63;;
13483;SDS011;6814;57.786;12.080;2023-06-04T10:11:34;4.23;;;1.90;;
13483;SDS011;6814;57.786;12.080;2023-06-04T10:14:02;3.73;;;1.63;;
13483;SDS011;6814;57.786;12.080;2023-06-04T10:16:29;3.33;;;1.70;;
13483;SDS011;6814;57.786;12.080;2023-06-04T10:18:56;1.57;;;1.40;;
13483;SDS011;6814;57.786;12.080;2023-06-04T10:21:23;2.23;;;1.50;;
13483;SDS011;6814;57.786;12.080;2023-06-04T10:23:51;4.23;;;1.50;;
13483;SDS011;6814;57.786;12.080;2023-06-04T10:26:18;1.90;;;1.60;;
13483;SDS011;6814;57.786;12.080;2023-06-04T10:28:44;3.57;;;2.03;;
13483;SDS011;6814;57.786;12.080;2023-06-04T10:31:11;2.13;;;1.50;;
13483;SDS011;6814;57.786;12.080;2023-06-04T10:33:37;2.47;;;1.67;;
13483;SDS011;6814;57.786;12.080;2023-06-04T10:36:15;1.83;;;1.33;;
13483;SDS011;6814;57.786;12.080;2023-06-04T10:38:44;3.27;;;1.80;;
13483;SDS011;6814;57.786;12.080;2023-06-04T10:41:14;5.60;;;1.93;;
13483;SDS011;6814;57.786;12.080;2023-06-04T10:43:41;1.53;;;1.43;;
13483;SDS011;6814;57.786;12.080;2023-06-04T10:46:11;3.30;;;1.63;;
13483;SDS011;6814;57.786;12.080;2023-06-04T10:48:44;3.90;;;1.77;;
13483;SDS011;6814;57.786;12.080;2023-06-04T10:51:11;3.13;;;1.80;;
13483;SDS011;6814;57.786;12.080;2023-06-04T10:53:37;2.43;;;1.60;;
13483;SDS011;6814;57.786;12.080;2023-06-04T10:56:03;2.43;;;1.70;;
13483;SDS011;6814;57.786;12.080;2023-06-04T10:58:32;1.90;;;1.43;;
13483;SDS011;6814;57.786;12.080;2023-06-04T11:00:59;2.57;;;1.40;;
13483;SDS011;6814;57.786;12.080;2023-06-04T11:03:34;2.83;;;1.40;;
13483;SDS011;6814;57.786;12.080;2023-06-04T11:06:01;2.90;;;1.50;;
13483;SDS011;6814;57.786;12.080;2023-06-04T11:08:27;2.80;;;1.50;;
13483;SDS011;6814;57.786;12.080;2023-06-04T11:10:54;2.47;;;1.57;;
13483;SDS011;6814;57.786;12.080;2023-06-04T11:13:22;2.20;;;1.30;;
13483;SDS011;6814;57.786;12.080;2023-06-04T11:15:50;2.43;;;1.60;;
13483;SDS011;6814;57.786;12.080;2023-06-04T11:18:17;2.87;;;1.53;;
13483;SDS011;6814;57.786;12.080;2023-06-04T11:20:44;1.67;;;1.50;;
13483;SDS011;6814;57.786;12.080;2023-06-04T11:23:11;2.03;;;1.60;;
13483;SDS011;6814;57.786;12.080;2023-06-04T11:25:38;2.60;;;1.50;;
13483;SDS011;6814;57.786;12.080;2023-06-04T11:28:04;1.67;;;1.40;;
13483;SDS011;6814;57.786;12.080;2023-06-04T11:30:31;2.90;;;1.30;;
13483;SDS011;6814;57.786;12.080;2023-06-04T11:33:02;1.97;;;1.40;;
13483;SDS011;6814;57.786;12.080;2023-06-04T11:35:28;2.13;;;1.33;;
13483;SDS011;6814;57.786;12.080;2023-06-04T11:37:55;2.37;;;1.43;;
13483;SDS011;6814;57.786;12.080;2023-06-04T11:40:22;1.67;;;1.57;;
13483;SDS011;6814;57.786;12.080;2023-06-04T11:42:49;3.13;;;1.63;;
13483;SDS011;6814;57.786;12.080;2023-06-04T11:45:16;2.67;;;1.40;;
13483;SDS011;6814;57.786;12.080;2023-06-04T11:47:44;1.43;;;1.30;;
13483;SDS011;6814;57.786;12.080;2023-06-04T11:50:12;5.17;;;2.10;;
13483;SDS011;6814;57.786;12.080;2023-06-04T11:52:39;4.43;;;2.20;;
13483;SDS011;6814;57.786;12.080;2023-06-04T11:55:07;5.07;;;2.20;;
13483;SDS011;6814;57.786;12.080;2023-06-04T11:57:34;4.27;;;2.20;;
13483;SDS011;6814;57.786;12.080;2023-06-04T12:00:01;3.80;;;2.10;;
13483;SDS011;6814;57.786;12.080;2023-06-04T12:02:27;5.00;;;2.40;;
13483;SDS011;6814;57.786;12.080;2023-06-04T12:04:54;4.60;;;2.30;;
13483;SDS011;6814;57.786;12.080;2023-06-04T12:07:22;7.07;;;2.37;;
13483;SDS011;6814;57.786;12.080;2023-06-04T12:09:49;6.80;;;2.73;;
13483;SDS011;6814;57.786;12.080;2023-06-04T12:12:21;3.90;;;2.37;;
13483;SDS011;6814;57.786;12.080;2023-06-04T12:14:47;5.37;;;2.60;;
13483;SDS011;6814;57.786;12.080;2023-06-04T12:17:13;3.77;;;2.17;;
13483;SDS011;6814;57.786;12.080;2023-06-04T12:19:46;6.47;;;2.80;;
13483;SDS011;6814;57.786;12.080;2023-06-04T12:22:12;7.90;;;2.93;;
13483;SDS011;6814;57.786;12.080;2023-06-04T12:24:47;4.93;;;2.30;;
13483;SDS011;6814;57.786;12.080;2023-06-04T12:27:14;7.50;;;3.10;;
13483;SDS011;6814;57.786;12.080;2023-06-04T12:29:40;3.63;;;2.30;;
13483;SDS011;6814;57.786;12.080;2023-06-04T12:32:07;5.23;;;2.03;;
13483;SDS011;6814;57.786;12.080;2023-06-04T12:34:34;4.97;;;2.30;;
13483;SDS011;6814;57.786;12.080;2023-06-04T12:37:01;6.50;;;2.60;;
13483;SDS011;6814;57.786;12.080;2023-06-04T12:39:28;2.97;;;2.20;;
13483;SDS011;6814;57.786;12.080;2023-06-04T12:41:56;6.83;;;2.37;;
13483;SDS011;6814;57.786;12.080;2023-06-04T12:44:22;8.53;;;2.70;;
13483;SDS011;6814;57.786;12.080;2023-06-04T12:46:50;5.20;;;2.53;;
13483;SDS011;6814;57.786;12.080;2023-06-04T12:49:17;3.77;;;2.23;;
13483;SDS011;6814;57.786;12.080;2023-06-04T12:51:43;4.63;;;2.50;;
13483;SDS011;6814;57.786;12.080;2023-06-04T12:54:09;4.40;;;2.10;;
13483;SDS011;6814;57.786;12.080;2023-06-04T12:56:36;5.10;;;2.33;;
13483;SDS011;6814;57.786;12.080;2023-06-04T12:59:04;3.63;;;2.00;;
13483;SDS011;6814;57.786;12.080;2023-06-04T13:01:31;3.90;;;2.23;;
13483;SDS011;6814;57.786;12.080;2023-06-04T13:03:57;3.73;;;2.10;;
13483;SDS011;6814;57.786;12.080;2023-06-04T13:06:24;5.57;;;2.10;;
13483;SDS011;6814;57.786;12.080;2023-06-04T13:08:50;4.87;;;2.30;;
13483;SDS011;6814;57.786;12.080;2023-06-04T13:11:16;3.43;;;1.80;;
13483;SDS011;6814;57.786;12.080;2023-06-04T13:13:44;3.80;;;2.23;;
13483;SDS011;6814;57.786;12.080;2023-06-04T13:16:12;2.70;;;2.03;;
13483;SDS011;6814;57.786;12.080;2023-06-04T13:18:38;2.83;;;2.00;;
13483;SDS011;6814;57.786;12.080;2023-06-04T13:21:04;4.80;;;2.40;;
13483;SDS011;6814;57.786;12.080;2023-06-04T13:23:31;3.93;;;2.10;;
13483;SDS011;6814;57.786;12.080;2023-06-04T13:25:57;3.93;;;1.73;;
13483;SDS011;6814;57.786;12.080;2023-06-04T13:28:24;2.70;;;1.77;;
13483;SDS011;6814;57.786;12.080;2023-06-04T13:30:50;4.10;;;2.13;;
13483;SDS011;6814;57.786;12.080;2023-06-04T13:33:18;2.33;;;1.70;;
13483;SDS011;6814;57.786;12.080;2023-06-04T13:35:46;4.97;;;2.17;;
13483;SDS011;6814;57.786;12.080;2023-06-04T13:38:13;3.47;;;1.80;;
13483;SDS011;6814;57.786;12.080;2023-06-04T13:40:39;1.83;;;1.70;;
13483;SDS011;6814;57.786;12.080;2023-06-04T13:43:06;4.70;;;2.00;;
13483;SDS011;6814;57.786;12.080;2023-06-04T13:45:33;2.00;;;1.57;;
13483;SDS011;6814;57.786;12.080;2023-06-04T13:48:00;2.77;;;1.63;;
13483;SDS011;6814;57.786;12.080;2023-06-04T13:50:31;2.50;;;1.70;;
13483;SDS011;6814;57.786;12.080;2023-06-04T13:52:57;2.53;;;1.90;;
13483;SDS011;6814;57.786;12.080;2023-06-04T13:55:24;4.20;;;1.50;;
13483;SDS011;6814;57.786;12.080;2023-06-04T13:57:50;1.57;;;1.47;;
13483;SDS011;6814;57.786;12.080;2023-06-04T14:00:17;1.97;;;1.43;;
13483;SDS011;6814;57.786;12.080;2023-06-04T14:02:45;2.87;;;1.80;;
13483;SDS011;6814;57.786;12.080;2023-06-04T14:05:11;3.00;;;1.70;;
13483;SDS011;6814;57.786;12.080;2023-06-04T14:07:40;1.77;;;1.63;;
13483;SDS011;6814;57.786;12.080;2023-06-04T14:10:07;2.20;;;1.53;;
13483;SDS011;6814;57.786;12.080;2023-06-04T14:12:33;2.40;;;1.77;;
13483;SDS011;6814;57.786;12.080;2023-06-04T14:15:00;1.93;;;1.50;;
13483;SDS011;6814;57.786;12.080;2023-06-04T14:17:26;2.37;;;1.40;;
13483;SDS011;6814;57.786;12.080;2023-06-04T14:19:53;1.13;;;1.03;;
13483;SDS011;6814;57.786;12.080;2023-06-04T14:22:19;1.90;;;1.53;;
13483;SDS011;6814;57.786;12.080;2023-06-04T14:24:47;1.63;;;1.40;;
13483;SDS011;6814;57.786;12.080;2023-06-04T14:27:13;2.03;;;1.40;;
13483;SDS011;6814;57.786;12.080;2023-06-04T14:29:40;1.57;;;1.40;;
13483;SDS011;6814;57.786;12.080;2023-06-04T14:32:06;2.23;;;1.47;;
13483;SDS011;6814;57.786;12.080;2023-06-04T14:34:33;1.63;;;1.00;;
13483;SDS011;6814;57.786;12.080;2023-06-04T14:37:00;1.90;;;1.37;;
13483;SDS011;6814;57.786;12.080;2023-06-04T14:39:26;3.60;;;1.30;;
13483;SDS011;6814;57.786;12.080;2023-06-04T14:41:54;2.00;;;1.50;;
13483;SDS011;6814;57.786;12.080;2023-06-04T14:44:21;1.47;;;1.37;;
13483;SDS011;6814;57.786;12.080;2023-06-04T14:46:48;2.33;;;1.20;;